Time;durP1;ratioP1;P1;durP2;ratioP2;P2;SDS_P1;SDS_P2;PMS_P1;PMS_P2;Temp;Humidity;BMP_temperature;BMP_pressure;BME280_temperature;BME280_humidity;BME280_pressure;Samples;Min_cycle;Max_cycle;Signal;HPM_P1;HPM_P2
2022/11/18 00:02:05;;;;;;;36.47;27.77;;;14.60;1.00;;;;;;5034191;28;20037;-56
2022/11/18 00:04:31;;;;;;;36.83;27.50;;;14.60;1.00;;;;;;5034814;28;20025;-55
2022/11/18 00:06:56;;;;;;;35.40;28.92;;;14.60;1.00;;;;;;5034569;28;20099;-54
2022/11/18 00:09:22;;;;;;;36.67;28.25;;;14.60;1.00;;;;;;5033524;28;20497;-53
2022/11/18 00:14:32;;;;;;;35.85;28.08;;;14.50;1.00;;;;;;5032421;28;20060;-56
2022/11/18 00:17:02;;;;;;;37.47;28.58;;;14.30;1.00;;;;;;5034441;28;20463;-53
2022/11/18 00:19:32;;;;;;;36.17;29.42;;;14.40;1.00;;;;;;5033402;28;20414;-53
2022/11/18 00:21:58;;;;;;;32.60;28.63;;;14.60;1.00;;;;;;5034891;28;20026;-52
2022/11/18 00:24:24;;;;;;;38.92;29.20;;;14.40;1.00;;;;;;5031785;28;20044;-56
2022/11/18 00:26:50;;;;;;;36.10;29.83;;;14.50;1.00;;;;;;5031082;28;20394;-57
2022/11/18 00:29:16;;;;;;;37.60;28.85;;;14.50;1.00;;;;;;5033166;28;20025;-55
2022/11/18 00:31:42;;;;;;;37.45;28.80;;;14.50;1.00;;;;;;5033045;28;20025;-56
2022/11/18 00:34:11;;;;;;;34.95;29.33;;;14.50;1.00;;;;;;5033941;28;20037;-55
2022/11/18 00:36:37;;;;;;;38.65;30.10;;;14.50;1.00;;;;;;5026196;28;20376;-55
2022/11/18 00:39:02;;;;;;;37.03;29.85;;;14.40;1.00;;;;;;5032508;28;20075;-55
2022/11/18 00:42:49;;;;;;;38.47;31.20;;;14.40;1.00;;;;;;5031367;28;20032;-55
2022/11/18 00:44:14;;;;;;;39.28;30.20;;;14.50;1.00;;;;;;5029506;28;20030;-56
2022/11/18 00:46:40;;;;;;;40.67;31.15;;;14.40;1.00;;;;;;5030515;28;20103;-53
2022/11/18 00:49:07;;;;;;;43.50;32.78;;;14.50;1.00;;;;;;5031536;28;20021;-55
2022/11/18 00:51:32;;;;;;;38.00;29.83;;;14.60;1.00;;;;;;5033132;28;20475;-55
2022/11/18 00:53:58;;;;;;;38.42;31.23;;;14.50;1.00;;;;;;5033029;28;20082;-54
2022/11/18 00:56:23;;;;;;;40.22;31.65;;;14.50;1.00;;;;;;5032026;28;20029;-53
2022/11/18 00:58:49;;;;;;;41.47;31.88;;;14.60;1.00;;;;;;5032461;28;20060;-55
2022/11/18 01:01:15;;;;;;;39.78;32.55;;;14.60;1.00;;;;;;5030009;28;20498;-55
2022/11/18 01:03:40;;;;;;;40.85;32.85;;;14.60;1.00;;;;;;5029799;28;20026;-52
2022/11/18 01:06:06;;;;;;;41.38;34.20;;;14.60;1.00;;;;;;5030649;28;20505;-55
2022/11/18 01:14:37;;;;;;;40.60;33.63;;;14.50;1.00;;;;;;5031697;28;20498;-58
2022/11/18 01:17:03;;;;;;;39.03;31.23;;;14.50;1.00;;;;;;5033409;28;20060;-57
2022/11/18 01:19:28;;;;;;;37.10;31.27;;;14.60;1.00;;;;;;5033512;28;20028;-55
2022/11/18 01:21:55;;;;;;;40.95;30.95;;;14.60;1.00;;;;;;5033170;28;20132;-54
2022/11/18 01:24:21;;;;;;;40.63;31.77;;;14.60;1.00;;;;;;5033248;28;20017;-53
2022/11/18 01:26:47;;;;;;;43.63;31.95;;;14.60;1.00;;;;;;5033113;28;20064;-57
2022/11/18 01:29:12;;;;;;;41.72;32.40;;;14.60;1.00;;;;;;5033175;28;20064;-53
2022/11/18 01:31:38;;;;;;;41.30;32.85;;;14.50;1.00;;;;;;5033451;28;20029;-50
2022/11/18 01:34:04;;;;;;;37.33;31.05;;;14.50;1.00;;;;;;5032312;28;20033;-54
2022/11/18 01:36:30;;;;;;;36.80;30.42;;;14.60;1.00;;;;;;5032873;28;20061;-57
2022/11/18 01:38:55;;;;;;;36.10;30.65;;;14.50;1.00;;;;;;5031704;28;20029;-53
2022/11/18 01:41:24;;;;;;;37.28;30.10;;;14.60;1.00;;;;;;5032987;28;20025;-56
2022/11/18 01:44:24;;;;;;;40.13;30.67;;;14.60;1.00;;;;;;5032882;28;20115;-53
2022/11/18 01:46:49;;;;;;;36.88;28.98;;;14.60;1.00;;;;;;5019381;28;20083;-55
2022/11/18 01:49:15;;;;;;;34.92;27.52;;;14.50;1.00;;;;;;5031103;28;20386;-54
2022/11/18 01:51:56;;;;;;;35.28;28.23;;;14.50;1.00;;;;;;5033204;28;20017;-55
2022/11/18 01:54:32;;;;;;;38.17;28.48;;;14.50;1.00;;;;;;5032718;28;20072;-57
2022/11/18 01:57:01;;;;;;;36.22;29.20;;;14.40;1.00;;;;;;5033101;28;20030;-55
2022/11/18 01:59:31;;;;;;;34.13;27.33;;;14.50;1.00;;;;;;5032951;28;20029;-55
2022/11/18 02:01:59;;;;;;;32.88;27.30;;;14.40;1.00;;;;;;5032788;28;20065;-55
2022/11/18 02:04:26;;;;;;;36.20;27.58;;;14.40;1.00;;;;;;5031262;28;20029;-55
2022/11/18 02:06:54;;;;;;;33.97;27.55;;;14.40;1.00;;;;;;5032566;28;20025;-55
2022/11/18 02:09:20;;;;;;;35.33;27.35;;;14.40;1.00;;;;;;5031752;28;20026;-55
2022/11/18 02:11:49;;;;;;;34.17;27.73;;;14.30;1.00;;;;;;5030619;28;20052;-53
2022/11/18 02:14:16;;;;;;;31.48;26.67;;;14.30;1.00;;;;;;5031721;28;20108;-54
2022/11/18 02:16:49;;;;;;;32.55;27.00;;;14.30;1.00;;;;;;5031818;28;20041;-53
2022/11/18 02:19:21;;;;;;;31.65;25.75;;;14.40;1.00;;;;;;5031236;28;20017;-58
2022/11/18 02:22:20;;;;;;;35.05;26.83;;;14.50;1.00;;;;;;5030423;28;20124;-52
2022/11/18 02:25:01;;;;;;;31.95;25.73;;;14.50;1.00;;;;;;5020014;28;20056;-57
2022/11/18 02:27:39;;;;;;;36.10;28.00;;;14.60;1.00;;;;;;5036156;28;20041;-53
2022/11/18 02:30:08;;;;;;;31.90;25.95;;;14.50;1.00;;;;;;5035749;28;20025;-53
2022/11/18 02:32:49;;;;;;;41.00;28.98;;;14.40;1.00;;;;;;5035754;28;20073;-52
2022/11/18 02:35:35;;;;;;;33.22;28.35;;;14.30;1.00;;;;;;5034139;28;20047;-56
2022/11/18 02:38:08;;;;;;;31.92;27.33;;;14.40;1.00;;;;;;5034936;28;20097;-53
2022/11/18 02:40:44;;;;;;;35.47;28.27;;;14.40;1.00;;;;;;5035554;28;20037;-53
2022/11/18 02:43:23;;;;;;;37.13;29.15;;;14.40;1.00;;;;;;5035092;28;20406;-53
2022/11/18 02:45:52;;;;;;;37.38;28.67;;;14.50;1.00;;;;;;5034186;28;20033;-51
2022/11/18 02:48:21;;;;;;;36.50;28.33;;;14.40;1.00;;;;;;5036121;28;20112;-55
2022/11/18 02:50:49;;;;;;;33.97;29.38;;;14.40;1.00;;;;;;5035829;28;20033;-51
2022/11/18 02:53:17;;;;;;;38.17;29.35;;;14.40;1.00;;;;;;5035829;28;20022;-54
2022/11/18 02:55:45;;;;;;;34.15;27.13;;;14.50;1.00;;;;;;5035202;28;20027;-51
2022/11/18 02:58:13;;;;;;;34.15;27.08;;;14.50;1.00;;;;;;5035976;28;20084;-56
2022/11/18 03:00:39;;;;;;;34.90;28.50;;;14.50;1.00;;;;;;5022800;28;20029;-50
2022/11/18 03:03:27;;;;;;;35.45;28.10;;;14.50;1.00;;;;;;5035939;28;20038;-52
2022/11/18 03:06:15;;;;;;;36.28;28.88;;;14.30;1.00;;;;;;5035798;28;20026;-54
2022/11/18 03:08:48;;;;;;;36.25;27.48;;;14.20;1.00;;;;;;5027103;28;20506;-52
2022/11/18 03:11:21;;;;;;;36.67;27.20;;;14.30;1.00;;;;;;5034505;28;20061;-53
2022/11/18 03:14:05;;;;;;;36.47;28.65;;;14.40;1.00;;;;;;5035846;28;20037;-53
2022/11/18 03:16:54;;;;;;;34.20;27.92;;;14.30;1.00;;;;;;5028960;28;20116;-50
2022/11/18 03:19:32;;;;;;;38.40;27.10;;;14.30;1.00;;;;;;5023628;28;20116;-53
2022/11/18 03:22:20;;;;;;;36.92;28.33;;;14.20;1.00;;;;;;5035655;28;20065;-50
2022/11/18 03:24:58;;;;;;;39.38;28.60;;;14.30;1.00;;;;;;5035424;28;20075;-53
2022/11/18 03:27:35;;;;;;;39.13;27.92;;;14.40;1.00;;;;;;5034577;28;20079;-50
2022/11/18 03:30:05;;;;;;;37.35;28.45;;;14.20;1.00;;;;;;5035472;28;20022;-56
2022/11/18 03:32:36;;;;;;;34.28;27.83;;;14.30;1.00;;;;;;5033997;28;20048;-56
2022/11/18 03:35:10;;;;;;;38.90;29.05;;;14.30;1.00;;;;;;5035682;28;20029;-56
2022/11/18 03:37:38;;;;;;;38.95;28.55;;;14.30;1.00;;;;;;5034564;28;20068;-56
2022/11/18 03:40:26;;;;;;;37.05;28.38;;;14.10;1.00;;;;;;5035637;28;20117;-55
2022/11/18 03:43:01;;;;;;;37.08;29.48;;;14.10;1.00;;;;;;5035258;28;20021;-56
2022/11/18 03:45:39;;;;;;;39.38;29.77;;;14.20;1.00;;;;;;5029232;28;20036;-58
2022/11/18 03:48:18;;;;;;;34.55;28.42;;;14.30;1.00;;;;;;5022209;28;20092;-51
2022/11/18 03:51:15;;;;;;;37.95;29.42;;;14.30;1.00;;;;;;5033541;28;20048;-54
2022/11/18 03:53:46;;;;;;;35.17;28.50;;;14.30;1.00;;;;;;5023488;28;20100;-51
2022/11/18 03:56:17;;;;;;;36.50;27.98;;;14.20;1.00;;;;;;5035008;28;20371;-52
2022/11/18 03:59:06;;;;;;;35.47;27.08;;;14.20;1.00;;;;;;5035019;28;20032;-51
2022/11/18 04:02:08;;;;;;;33.95;27.48;;;14.10;1.00;;;;;;5033565;28;20489;-55
2022/11/18 04:04:33;;;;;;;35.47;27.40;;;14.20;1.00;;;;;;5034673;28;20102;-56
2022/11/18 04:07:18;;;;;;;31.48;26.38;;;14.30;1.00;;;;;;5034058;28;20475;-53
2022/11/18 04:09:55;;;;;;;33.92;26.13;;;14.30;1.00;;;;;;5034537;28;20044;-51
2022/11/18 04:12:22;;;;;;;34.88;27.42;;;14.20;1.00;;;;;;5034896;28;20041;-57
2022/11/18 04:14:51;;;;;;;34.55;25.67;;;14.30;1.00;;;;;;5034364;28;20070;-57
2022/11/18 04:17:20;;;;;;;35.00;26.88;;;14.10;1.00;;;;;;5033487;28;20041;-59
2022/11/18 04:19:46;;;;;;;34.00;24.92;;;14.00;1.00;;;;;;5034470;28;20021;-58
2022/11/18 04:22:12;;;;;;;35.65;28.58;;;14.00;1.00;;;;;;5034673;28;20119;-57
2022/11/18 04:24:38;;;;;;;36.25;27.10;;;14.20;1.00;;;;;;5033054;28;20033;-57
2022/11/18 04:27:05;;;;;;;36.58;27.75;;;14.30;1.00;;;;;;5034340;28;20029;-57
2022/11/18 04:29:31;;;;;;;35.47;28.00;;;14.20;1.00;;;;;;5034603;28;20433;-57
2022/11/18 04:31:58;;;;;;;35.13;27.25;;;14.20;1.00;;;;;;5033320;28;20041;-57
2022/11/18 04:34:23;;;;;;;37.03;27.80;;;14.30;1.00;;;;;;5033855;28;20036;-57
2022/11/18 04:36:49;;;;;;;33.65;28.02;;;14.20;1.00;;;;;;5034226;28;20034;-56
2022/11/18 04:39:16;;;;;;;35.25;27.30;;;14.30;1.00;;;;;;5034098;28;20034;-55
2022/11/18 04:41:55;;;;;;;39.30;28.05;;;14.30;1.00;;;;;;5034111;28;20029;-55
2022/11/18 04:44:31;;;;;;;40.42;30.13;;;14.30;1.00;;;;;;5020928;28;20023;-55
2022/11/18 04:46:59;;;;;;;37.90;28.80;;;14.30;1.00;;;;;;5032854;28;20497;-55
2022/11/18 04:49:25;;;;;;;35.60;28.75;;;14.30;1.00;;;;;;5034142;28;20021;-55
2022/11/18 04:51:52;;;;;;;38.50;29.73;;;14.20;1.00;;;;;;5034071;28;20028;-56
2022/11/18 04:54:18;;;;;;;39.78;28.83;;;14.20;1.00;;;;;;5033390;28;20056;-54
2022/11/18 04:56:44;;;;;;;37.65;27.80;;;14.30;1.00;;;;;;5033903;28;20018;-54
2022/11/18 04:59:11;;;;;;;38.38;28.23;;;14.20;1.00;;;;;;5033659;28;20084;-54
2022/11/18 05:01:37;;;;;;;36.30;27.73;;;14.30;1.00;;;;;;5032223;28;20111;-52
2022/11/18 05:04:04;;;;;;;37.60;26.40;;;14.30;1.00;;;;;;5044871;28;20446;-52
2022/11/18 05:06:31;;;;;;;37.65;27.35;;;14.30;1.00;;;;;;5036284;28;20029;-56
2022/11/18 05:08:57;;;;;;;35.22;27.60;;;14.30;1.00;;;;;;5033794;28;20025;-53
2022/11/18 05:14:08;;;;;;;;;;;14.30;1.00;;;;;;5034181;28;20525;-52
2022/11/18 05:16:34;;;;;;;32.58;26.50;;;14.10;1.00;;;;;;5033321;28;19905;-54
2022/11/18 05:19:02;;;;;;;36.15;27.67;;;14.10;1.00;;;;;;5032372;28;20478;-55
2022/11/18 05:21:27;;;;;;;37.10;28.25;;;14.10;1.00;;;;;;5033269;28;20028;-52
2022/11/18 05:23:53;;;;;;;36.25;27.83;;;14.10;1.00;;;;;;5033262;28;20033;-55
2022/11/18 05:26:18;;;;;;;36.78;29.05;;;14.10;1.00;;;;;;5033309;28;20022;-53
2022/11/18 05:28:44;;;;;;;36.33;28.02;;;14.00;1.00;;;;;;5032199;28;20040;-57
2022/11/18 05:31:12;;;;;;;38.88;28.38;;;14.10;1.00;;;;;;5033227;28;20445;-54
2022/11/18 05:33:39;;;;;;;37.13;28.52;;;14.00;1.00;;;;;;5033080;28;20434;-52
2022/11/18 05:36:09;;;;;;;36.17;27.45;;;14.00;1.00;;;;;;5032317;28;20030;-53
2022/11/18 05:38:35;;;;;;;37.53;29.30;;;14.00;1.00;;;;;;5033083;28;20120;-54
2022/11/18 05:41:01;;;;;;;36.03;28.33;;;13.90;1.00;;;;;;5033046;28;20068;-52
2022/11/18 05:43:28;;;;;;;38.28;27.90;;;14.00;1.00;;;;;;5033010;28;20037;-52
2022/11/18 05:45:53;;;;;;;35.90;29.08;;;14.00;1.00;;;;;;5031644;28;20021;-50
2022/11/18 05:48:19;;;;;;;42.33;29.55;;;13.90;1.00;;;;;;5033062;28;20026;-50
2022/11/18 05:50:47;;;;;;;35.95;28.42;;;13.80;1.00;;;;;;5031530;28;20395;-53
2022/11/18 05:53:14;;;;;;;35.30;28.33;;;13.80;1.00;;;;;;5018815;28;20060;-51
2022/11/18 05:55:45;;;;;;;39.28;29.27;;;13.80;1.00;;;;;;5031578;28;20033;-50
2022/11/18 05:58:11;;;;;;;39.80;29.77;;;13.70;1.00;;;;;;5032832;28;20022;-54
2022/11/18 06:00:37;;;;;;;35.03;29.15;;;13.60;1.00;;;;;;5032420;28;20475;-52
2022/11/18 06:03:07;;;;;;;37.53;28.40;;;13.60;1.00;;;;;;5032686;28;20057;-56
2022/11/18 06:05:32;;;;;;;37.80;29.83;;;13.50;1.00;;;;;;5032908;28;20194;-52
2022/11/18 06:07:58;;;;;;;36.80;28.60;;;13.40;1.00;;;;;;5031780;28;20738;-52
2022/11/18 06:10:29;;;;;;;38.75;29.98;;;13.40;1.00;;;;;;5032901;28;20028;-52
2022/11/18 06:12:59;;;;;;;41.50;31.80;;;13.50;1.00;;;;;;5032579;28;20395;-55
2022/11/18 06:15:27;;;;;;;44.45;31.63;;;13.40;1.00;;;;;;5031389;28;20025;-50
2022/11/18 06:18:03;;;;;;;37.20;31.02;;;13.50;1.00;;;;;;5031333;28;20029;-56
2022/11/18 06:20:29;;;;;;;38.00;30.95;;;13.60;1.00;;;;;;5031327;28;20088;-52
2022/11/18 06:22:56;;;;;;;41.65;32.35;;;13.60;1.00;;;;;;5031703;28;20427;-54
2022/11/18 06:25:23;;;;;;;41.88;31.27;;;13.60;1.00;;;;;;5032298;28;20076;-53
2022/11/18 06:27:50;;;;;;;42.17;33.38;;;13.70;1.00;;;;;;5032587;28;20032;-57
2022/11/18 06:30:16;;;;;;;36.72;29.58;;;13.60;1.00;;;;;;5032639;28;20076;-52
2022/11/18 06:32:42;;;;;;;39.25;30.42;;;13.80;1.00;;;;;;5032331;28;20033;-55
2022/11/18 06:35:08;;;;;;;39.30;30.25;;;13.80;1.00;;;;;;5032014;28;20060;-57
2022/11/18 06:37:34;;;;;;;40.30;31.90;;;13.90;1.00;;;;;;5032846;28;20026;-57
2022/11/18 06:39:59;;;;;;;35.45;29.25;;;13.80;1.00;;;;;;5031480;28;20017;-51
2022/11/18 06:45:13;;;;;;;38.50;28.92;;;13.80;1.00;;;;;;5032239;28;20100;-54
2022/11/18 06:47:38;;;;;;;36.97;27.88;;;13.70;1.00;;;;;;5032654;28;20105;-57
2022/11/18 06:50:04;;;;;;;38.10;28.77;;;13.70;1.00;;;;;;5041545;28;20037;-56
2022/11/18 06:52:30;;;;;;;36.58;29.55;;;13.70;1.00;;;;;;5032265;28;20033;-57
2022/11/18 06:54:56;;;;;;;35.40;29.30;;;13.90;1.00;;;;;;5032504;28;20079;-56
2022/11/18 06:57:21;;;;;;;35.47;27.95;;;13.80;1.00;;;;;;5018372;28;20054;-57
2022/11/18 06:59:47;;;;;;;36.85;28.23;;;13.70;1.00;;;;;;5030771;28;20030;-58
2022/11/18 07:02:13;;;;;;;36.53;29.27;;;13.80;1.00;;;;;;5032253;28;20052;-57
2022/11/18 07:04:39;;;;;;;41.55;29.30;;;13.90;1.00;;;;;;5031920;28;20486;-56
2022/11/18 07:07:08;;;;;;;40.75;29.33;;;14.00;1.00;;;;;;5032465;28;20018;-52
2022/11/18 07:09:35;;;;;;;38.75;30.05;;;13.90;1.00;;;;;;5032097;28;20443;-55
2022/11/18 07:12:00;;;;;;;41.70;28.60;;;13.90;1.00;;;;;;5032609;28;20025;-54
2022/11/18 07:14:26;;;;;;;37.00;27.52;;;13.80;1.00;;;;;;5025979;28;20442;-55
2022/11/18 07:16:51;;;;;;;36.90;28.23;;;13.90;1.00;;;;;;5032156;28;20017;-54
2022/11/18 07:19:17;;;;;;;36.58;29.08;;;13.90;1.00;;;;;;5034494;28;20025;-53
2022/11/18 07:21:43;;;;;;;39.50;31.13;;;13.90;1.00;;;;;;5035630;28;20033;-55
2022/11/18 07:24:11;;;;;;;39.67;31.50;;;13.90;1.00;;;;;;5035374;28;20029;-54
2022/11/18 07:26:37;;;;;;;43.83;33.15;;;13.80;1.00;;;;;;5034775;28;20084;-56
2022/11/18 07:29:03;;;;;;;46.33;33.15;;;13.70;1.00;;;;;;5034054;28;20025;-56
2022/11/18 07:31:29;;;;;;;47.40;34.53;;;13.80;1.00;;;;;;5035436;28;20030;-55
2022/11/18 07:33:55;;;;;;;42.70;34.63;;;13.80;1.00;;;;;;5035361;28;20110;-53
2022/11/18 07:36:24;;;;;;;47.63;37.10;;;13.80;1.00;;;;;;5035454;28;20021;-56
2022/11/18 07:38:50;;;;;;;47.10;35.38;;;13.80;1.00;;;;;;5033734;28;20037;-51
2022/11/18 07:41:27;;;;;;;51.10;37.50;;;13.80;1.00;;;;;;5034137;28;20025;-54
2022/11/18 07:43:55;;;;;;;49.72;37.95;;;13.70;1.00;;;;;;5035121;28;20029;-54
2022/11/18 07:46:27;;;;;;;52.45;37.83;;;13.70;1.00;;;;;;5034132;28;20018;-56
2022/11/18 07:48:55;;;;;;;51.60;37.05;;;13.70;1.00;;;;;;5034879;28;20032;-52
2022/11/18 07:51:30;;;;;;;51.33;36.63;;;13.80;1.00;;;;;;5035184;28;20028;-56
2022/11/18 07:53:55;;;;;;;47.60;35.47;;;13.80;1.00;;;;;;5035043;28;20510;-54
2022/11/18 07:56:22;;;;;;;45.53;33.78;;;13.70;1.00;;;;;;5033855;28;20018;-55
2022/11/18 07:58:54;;;;;;;57.78;37.85;;;13.50;1.00;;;;;;5034536;28;20038;-55
2022/11/18 08:01:21;;;;;;;57.90;38.22;;;13.50;1.00;;;;;;5035029;28;20466;-50
2022/11/18 08:03:48;;;;;;;50.50;37.40;;;13.60;1.00;;;;;;5034808;28;20029;-56
2022/11/18 08:06:15;;;;;;;48.75;35.85;;;13.50;1.00;;;;;;5034604;28;20121;-53
2022/11/18 08:08:43;;;;;;;56.28;38.50;;;13.60;1.00;;;;;;5035094;28;20041;-54
2022/11/18 08:11:12;;;;;;;61.00;38.58;;;13.50;1.00;;;;;;5033321;28;20112;-52
2022/11/18 08:13:37;;;;;;;57.17;39.13;;;13.40;1.00;;;;;;5020730;28;20033;-52
2022/11/18 08:16:04;;;;;;;59.30;39.42;;;13.40;1.00;;;;;;5034924;28;20033;-53
2022/11/18 08:18:31;;;;;;;60.03;41.83;;;13.50;1.00;;;;;;5034380;28;20475;-53
2022/11/18 08:21:03;;;;;;;61.22;40.60;;;13.40;1.00;;;;;;5034804;28;20387;-51
2022/11/18 08:23:29;;;;;;;57.08;39.58;;;13.40;1.00;;;;;;5034035;28;20028;-55
2022/11/18 08:26:04;;;;;;;57.25;38.60;;;13.40;1.00;;;;;;5034435;28;20017;-51
2022/11/18 08:28:30;;;;;;;56.80;38.80;;;13.40;1.00;;;;;;5030752;28;20036;-51
2022/11/18 08:30:56;;;;;;;53.72;37.78;;;13.30;1.00;;;;;;5033235;28;20055;-50
2022/11/18 08:33:21;;;;;;;51.17;34.53;;;13.30;1.00;;;;;;5034054;28;20391;-55
2022/11/18 08:35:47;;;;;;;45.72;33.67;;;13.30;1.00;;;;;;5034176;28;20108;-56
2022/11/18 08:38:13;;;;;;;51.95;34.40;;;13.40;1.00;;;;;;5034375;28;20115;-56
2022/11/18 08:40:42;;;;;;;42.17;30.52;;;13.50;1.00;;;;;;5034222;28;20029;-57
2022/11/18 08:43:10;;;;;;;44.70;29.65;;;13.50;1.00;;;;;;5034431;28;20025;-57
2022/11/18 08:45:39;;;;;;;37.22;28.33;;;13.40;1.00;;;;;;5033929;28;20053;-57
2022/11/18 08:48:05;;;;;;;37.97;28.83;;;13.50;1.00;;;;;;5034337;28;20119;-58
2022/11/18 08:50:31;;;;;;;34.20;28.15;;;13.70;1.00;;;;;;5033915;28;20049;-57
2022/11/18 08:52:56;;;;;;;39.15;29.05;;;13.70;1.00;;;;;;5034024;28;20022;-56
2022/11/18 08:55:22;;;;;;;36.67;27.30;;;13.70;1.00;;;;;;5033935;28;20095;-57
2022/11/18 08:57:48;;;;;;;33.35;25.63;;;13.90;1.00;;;;;;5033870;28;20418;-56
2022/11/18 09:00:15;;;;;;;33.38;25.50;;;13.70;1.00;;;;;;5033831;28;20049;-56
2022/11/18 09:02:40;;;;;;;33.72;25.40;;;13.60;1.00;;;;;;5033673;28;20041;-55
2022/11/18 09:05:06;;;;;;;31.73;25.48;;;13.60;1.00;;;;;;5033504;28;20096;-56
2022/11/18 09:07:32;;;;;;;33.60;25.98;;;13.70;1.00;;;;;;5032502;28;20032;-54
2022/11/18 09:09:57;;;;;;;31.45;24.90;;;13.50;1.00;;;;;;5032655;28;20206;-57
2022/11/18 09:12:23;;;;;;;33.70;24.73;;;13.60;1.00;;;;;;5033324;28;20124;-57
2022/11/18 09:14:49;;;;;;;34.75;25.63;;;13.60;1.00;;;;;;5033484;28;20435;-55
2022/11/18 09:17:14;;;;;;;32.85;24.30;;;13.60;1.00;;;;;;5033535;28;20475;-54
2022/11/18 09:19:40;;;;;;;38.13;25.15;;;13.50;1.00;;;;;;5033246;28;20056;-57
2022/11/18 09:22:07;;;;;;;35.80;26.65;;;13.60;1.00;;;;;;5033572;28;20064;-58
2022/11/18 09:24:33;;;;;;;38.65;27.90;;;13.80;1.00;;;;;;5033484;28;20040;-57
2022/11/18 09:27:03;;;;;;;38.42;27.23;;;13.60;1.00;;;;;;5033125;28;20045;-57
2022/11/18 09:29:29;;;;;;;38.65;27.73;;;13.60;1.00;;;;;;5033379;28;20021;-56
2022/11/18 09:31:54;;;;;;;38.20;26.83;;;13.60;1.00;;;;;;5031983;28;20037;-57
2022/11/18 09:34:21;;;;;;;38.85;28.70;;;13.60;1.00;;;;;;5031113;28;20034;-53
2022/11/18 09:36:46;;;;;;;40.63;28.25;;;13.80;1.00;;;;;;5033285;28;20364;-57
2022/11/18 09:39:12;;;;;;;34.25;25.48;;;13.90;1.00;;;;;;5031688;28;20037;-56
2022/11/18 09:41:53;;;;;;;38.00;26.55;;;14.00;1.00;;;;;;5033100;28;20025;-56
2022/11/18 09:44:47;;;;;;;38.35;27.25;;;14.10;1.00;;;;;;5033193;28;20049;-58
2022/11/18 09:47:23;;;;;;;44.05;29.00;;;14.10;1.00;;;;;;5033034;28;20431;-56
2022/11/18 09:49:49;;;;;;;35.25;26.42;;;14.10;1.00;;;;;;5033115;28;20030;-57
2022/11/18 09:52:21;;;;;;;42.63;30.83;;;14.10;1.00;;;;;;5032999;28;20487;-56
2022/11/18 09:54:47;;;;;;;45.13;29.73;;;14.10;1.00;;;;;;5032831;28;20072;-54
2022/11/18 09:57:17;;;;;;;44.33;31.95;;;14.10;1.00;;;;;;5032814;28;20106;-55
2022/11/18 09:59:43;;;;;;;46.33;29.58;;;14.10;1.00;;;;;;5017707;28;20517;-55
2022/11/18 10:02:12;;;;;;;41.55;30.60;;;14.10;1.00;;;;;;5031400;28;20089;-54
2022/11/18 10:04:39;;;;;;;49.88;32.95;;;13.90;1.00;;;;;;5032749;28;20069;-55
2022/11/18 10:07:15;;;;;;;45.10;31.30;;;13.90;1.00;;;;;;5032821;28;20486;-55
2022/11/18 10:09:41;;;;;;;44.83;30.65;;;13.90;1.00;;;;;;5030305;28;20049;-56
2022/11/18 10:12:19;;;;;;;45.63;30.45;;;14.10;1.00;;;;;;5032968;28;20090;-54
2022/11/18 10:15:07;;;;;;;46.13;30.02;;;14.00;1.00;;;;;;5031481;28;20033;-56
2022/11/18 10:17:51;;;;;;;45.22;29.58;;;13.90;1.00;;;;;;5032625;28;20032;-55
2022/11/18 10:20:23;;;;;;;39.33;27.83;;;14.10;1.00;;;;;;5017940;28;20021;-52
2022/11/18 10:23:15;;;;;;;42.25;28.70;;;14.10;1.00;;;;;;5032724;28;20171;-57
2022/11/18 10:25:41;;;;;;;36.05;25.38;;;14.20;1.00;;;;;;5019001;28;20114;-57
2022/11/18 10:28:28;;;;;;;40.00;26.70;;;14.10;1.00;;;;;;5032434;28;20102;-57
2022/11/18 10:31:01;;;;;;;51.30;29.90;;;14.00;1.00;;;;;;5032452;28;20025;-56
2022/11/18 10:33:28;;;;;;;39.20;26.33;;;14.10;1.00;;;;;;5032583;28;20390;-54
2022/11/18 10:36:12;;;;;;;37.83;26.75;;;14.00;1.00;;;;;;5032802;28;20032;-54
2022/11/18 10:38:38;;;;;;;37.05;25.50;;;14.10;1.00;;;;;;5030686;28;20387;-54
2022/11/18 10:41:08;;;;;;;37.45;25.52;;;14.20;1.00;;;;;;5031834;28;20040;-54
2022/11/18 10:43:54;;;;;;;39.25;28.10;;;14.30;1.00;;;;;;5032505;28;20036;-54
2022/11/18 10:46:25;;;;;;;36.13;24.83;;;14.30;1.00;;;;;;5034252;28;20036;-56
2022/11/18 10:49:08;;;;;;;40.03;27.08;;;14.20;1.00;;;;;;5036141;28;20409;-55
2022/11/18 10:51:35;;;;;;;33.22;23.95;;;14.20;1.00;;;;;;5036120;28;20056;-56
2022/11/18 10:54:19;;;;;;;39.75;26.10;;;14.20;1.00;;;;;;5036451;28;20041;-54
2022/11/18 10:56:44;;;;;;;34.70;24.70;;;14.20;1.00;;;;;;5022458;28;20064;-56
2022/11/18 10:59:35;;;;;;;37.30;24.48;;;14.30;1.00;;;;;;5034836;28;20034;-56
2022/11/18 11:02:21;;;;;;;35.40;24.50;;;14.40;1.00;;;;;;5020729;28;20087;-53
2022/11/18 11:04:51;;;;;;;39.58;25.75;;;14.40;1.00;;;;;;5036007;28;20052;-57
2022/11/18 11:07:34;;;;;;;30.23;22.63;;;14.50;1.00;;;;;;5036124;28;20052;-58
2022/11/18 11:10:09;;;;;;;34.72;24.38;;;14.50;1.00;;;;;;5035830;28;20498;-58
2022/11/18 11:12:47;;;;;;;40.70;26.60;;;14.60;1.00;;;;;;5036041;28;20037;-57
2022/11/18 11:15:21;;;;;;;34.92;25.13;;;14.60;1.00;;;;;;5035877;28;20021;-56
2022/11/18 11:20:50;;;;;;;29.27;24.23;;;14.60;1.00;;;;;;5026419;28;20040;-55
2022/11/18 11:23:15;;;;;;;32.00;24.23;;;14.70;1.00;;;;;;5034515;28;20387;-57
2022/11/18 11:25:42;;;;;;;35.97;25.25;;;14.60;1.00;;;;;;5035812;28;20031;-56
2022/11/18 11:28:16;;;;;;;33.15;25.17;;;14.60;1.00;;;;;;5035313;28;20578;-56
2022/11/18 11:30:58;;;;;;;29.65;24.08;;;14.70;1.00;;;;;;5035372;28;20467;-58
2022/11/18 11:33:32;;;;;;;32.25;24.40;;;14.70;1.00;;;;;;5035418;28;20124;-56
2022/11/18 11:36:52;;;;;;;33.10;24.65;;;14.70;1.00;;;;;;5035597;28;20022;-58
2022/11/18 11:39:52;;;;;;;32.10;24.35;;;14.70;1.00;;;;;;4993787;28;20165;-56
2022/11/18 11:42:45;;;;;;;30.23;23.02;;;14.80;1.00;;;;;;5034865;28;20041;-57
2022/11/18 11:45:31;;;;;;;31.65;23.33;;;14.80;1.00;;;;;;5034974;28;20021;-57
2022/11/18 11:48:20;;;;;;;31.13;23.40;;;14.80;1.00;;;;;;5035381;28;20026;-58
2022/11/18 11:51:02;;;;;;;29.02;21.80;;;14.80;1.00;;;;;;5035194;28;20021;-57
2022/11/18 11:53:48;;;;;;;30.60;22.55;;;14.90;1.00;;;;;;5033576;28;20092;-57
2022/11/18 11:56:45;;;;;;;28.92;21.80;;;14.90;1.00;;;;;;5023467;28;20475;-55
2022/11/18 11:59:13;;;;;;;28.13;21.83;;;14.90;1.00;;;;;;5034471;28;20028;-57
2022/11/18 12:01:49;;;;;;;29.23;21.63;;;14.80;1.00;;;;;;5034774;28;20041;-57
2022/11/18 12:04:38;;;;;;;26.45;21.63;;;14.90;1.00;;;;;;5033505;28;20033;-57
2022/11/18 12:07:10;;;;;;;28.30;22.27;;;15.00;1.00;;;;;;5035203;28;20324;-58
2022/11/18 12:10:00;;;;;;;27.70;21.58;;;15.10;1.00;;;;;;5021392;28;20026;-58
2022/11/18 12:12:41;;;;;;;28.60;21.25;;;15.10;1.00;;;;;;5034810;28;20025;-58
2022/11/18 12:15:15;;;;;;;28.33;20.30;;;15.20;1.00;;;;;;5034830;28;20510;-57
2022/11/18 12:17:46;;;;;;;31.47;20.73;;;15.20;1.00;;;;;;5034697;28;20022;-57
2022/11/18 12:20:36;;;;;;;30.83;18.50;;;15.20;1.00;;;;;;5034643;28;20025;-58
2022/11/18 12:23:12;;;;;;;34.47;21.38;;;15.20;1.00;;;;;;5034718;28;20029;-58
2022/11/18 12:25:57;;;;;;;25.58;19.42;;;15.30;1.00;;;;;;5034360;28;20029;-59
2022/11/18 12:28:29;;;;;;;28.85;19.30;;;15.30;1.00;;;;;;5034597;28;20108;-58
2022/11/18 12:31:16;;;;;;;25.35;19.20;;;15.30;1.00;;;;;;5034507;28;20164;-58
2022/11/18 12:33:45;;;;;;;23.23;18.15;;;15.30;1.00;;;;;;5034008;28;20467;-58
2022/11/18 12:36:38;;;;;;;22.13;17.23;;;15.40;1.00;;;;;;5034036;28;20037;-56
2022/11/18 12:39:24;;;;;;;26.02;18.40;;;15.40;1.00;;;;;;5021709;28;20010;-58
2022/11/18 12:44:43;;;;;;;27.13;19.05;;;15.50;1.00;;;;;;5034390;28;20555;-57
2022/11/18 12:47:10;;;;;;;23.58;18.30;;;15.50;1.00;;;;;;5032762;28;20372;-56
2022/11/18 12:49:36;;;;;;;22.00;17.67;;;15.50;1.00;;;;;;5033837;28;20026;-57
2022/11/18 12:52:04;;;;;;;24.55;18.40;;;15.50;1.00;;;;;;5033991;28;20459;-58
2022/11/18 12:54:46;;;;;;;22.95;18.13;;;15.60;1.00;;;;;;5033765;28;20037;-56
2022/11/18 12:57:21;;;;;;;24.58;19.05;;;15.60;1.00;;;;;;5033917;28;20041;-57
2022/11/18 12:59:47;;;;;;;21.42;17.10;;;15.60;1.00;;;;;;5032461;28;20044;-56
2022/11/18 13:02:26;;;;;;;22.15;16.90;;;15.60;1.00;;;;;;5033347;28;20538;-58
2022/11/18 13:05:17;;;;;;;24.45;18.15;;;15.60;1.00;;;;;;5033549;28;20025;-56
2022/11/18 13:08:13;;;;;;;26.13;19.63;;;15.70;1.00;;;;;;5033766;28;20033;-57
2022/11/18 13:11:43;;;;;;;26.52;18.73;;;15.70;1.00;;;;;;5032618;28;20467;-58
2022/11/18 13:13:40;;;;;;;28.00;19.33;;;15.80;1.00;;;;;;5033520;28;20407;-57
2022/11/18 13:19:06;;;;;;;26.80;18.75;;;15.80;1.00;;;;;;5024285;28;20033;-59
2022/11/18 13:24:20;;;;;;;26.40;18.98;;;15.80;1.00;;;;;;5033705;28;20514;-57
2022/11/18 13:26:47;;;;;;;23.95;17.45;;;15.80;1.00;;;;;;5033432;28;20387;-57